Time;durP1;ratioP1;P1;durP2;ratioP2;P2;SDS_P1;SDS_P2;PMS_P1;PMS_P2;Temp;Humidity;BMP_temperature;BMP_pressure;BME280_temperature;BME280_humidity;BME280_pressure;Samples;Min_cycle;Max_cycle;Signal;HPM_P1;HPM_P2
2022/06/01 00:00:40;;;;;;;5.10;2.83;;;;;;;;;;5118025;28;20521;-70
2022/06/01 00:03:08;;;;;;;3.00;2.10;;;;;;;;;;5116456;27;20784;-70
2022/06/01 00:05:35;;;;;;;3.60;2.20;;;;;;;;;;5117763;27;20537;-70
2022/06/01 00:08:03;;;;;;;3.90;2.73;;;;;;;;;;5117945;27;20462;-69
2022/06/01 00:10:31;;;;;;;3.57;2.50;;;;;;;;;;5117876;27;20455;-70
2022/06/01 00:12:59;;;;;;;4.33;2.70;;;;;;;;;;5118295;27;20549;-70
2022/06/01 00:15:29;;;;;;;3.87;2.40;;;;;;;;;;5117728;27;20915;-70
2022/06/01 00:17:58;;;;;;;4.00;2.60;;;;;;;;;;5116966;27;20523;-69
2022/06/01 00:20:30;;;;;;;4.33;2.30;;;;;;;;;;5117525;28;20442;-70
2022/06/01 00:22:57;;;;;;;3.63;2.73;;;;;;;;;;5117081;27;20466;-70
2022/06/01 00:25:25;;;;;;;3.40;2.70;;;;;;;;;;5117730;27;20463;-70
2022/06/01 00:27:56;;;;;;;3.77;2.43;;;;;;;;;;5115909;27;21011;-70
2022/06/01 00:30:28;;;;;;;2.93;2.30;;;;;;;;;;5117099;27;20606;-71
2022/06/01 00:32:56;;;;;;;5.60;2.97;;;;;;;;;;5117750;28;20480;-70
2022/06/01 00:35:27;;;;;;;3.33;2.50;;;;;;;;;;5116752;27;20451;-70
2022/06/01 00:37:55;;;;;;;4.40;3.10;;;;;;;;;;5117166;28;20462;-71
2022/06/01 00:40:24;;;;;;;3.50;2.67;;;;;;;;;;5117606;27;20457;-71
2022/06/01 00:42:53;;;;;;;3.40;2.70;;;;;;;;;;5116569;27;20467;-70
2022/06/01 00:45:23;;;;;;;7.77;2.90;;;;;;;;;;5116643;28;20458;-71
2022/06/01 00:47:52;;;;;;;4.00;2.50;;;;;;;;;;5116952;27;20795;-71
2022/06/01 00:50:22;;;;;;;3.10;2.07;;;;;;;;;;5117431;27;20450;-70
2022/06/01 00:52:52;;;;;;;6.60;2.83;;;;;;;;;;5116251;27;20472;-70
2022/06/01 00:55:21;;;;;;;3.87;2.20;;;;;;;;;;5116347;27;20454;-70
2022/06/01 00:57:50;;;;;;;3.10;2.73;;;;;;;;;;5116272;28;20477;-70
2022/06/01 01:00:20;;;;;;;3.33;2.77;;;;;;;;;;5116694;28;20455;-70
2022/06/01 01:02:48;;;;;;;3.60;2.37;;;;;;;;;;5116880;27;20459;-70
2022/06/01 01:05:18;;;;;;;7.23;2.67;;;;;;;;;;5116982;28;20488;-70
2022/06/01 01:07:46;;;;;;;3.90;2.40;;;;;;;;;;5116482;27;20592;-70
2022/06/01 01:10:16;;;;;;;4.20;2.60;;;;;;;;;;5117223;28;20541;-70
2022/06/01 01:13:01;;;;;;;4.37;2.70;;;;;;;;;;5116707;28;20454;-70
2022/06/01 01:15:30;;;;;;;8.33;2.47;;;;;;;;;;5116445;28;20470;-70
2022/06/01 01:17:58;;;;;;;4.30;3.17;;;;;;;;;;5117818;28;20753;-69
2022/06/01 01:20:28;;;;;;;3.00;2.40;;;;;;;;;;5116809;28;20485;-71
2022/06/01 01:23:05;;;;;;;3.40;2.70;;;;;;;;;;5116213;28;20462;-71
2022/06/01 01:25:38;;;;;;;3.67;2.60;;;;;;;;;;5116864;28;20458;-71
2022/06/01 01:28:07;;;;;;;5.70;2.47;;;;;;;;;;5116054;28;20501;-71
2022/06/01 01:30:55;;;;;;;3.17;2.43;;;;;;;;;;5116029;28;20756;-71
2022/06/01 01:33:29;;;;;;;3.83;2.37;;;;;;;;;;5116168;28;20957;-70
2022/06/01 01:36:01;;;;;;;3.80;2.57;;;;;;;;;;5116651;28;20453;-71
2022/06/01 01:38:34;;;;;;;3.77;2.70;;;;;;;;;;5115546;28;20490;-71
2022/06/01 01:41:04;;;;;;;5.03;3.30;;;;;;;;;;5116211;28;20466;-68
2022/06/01 01:43:33;;;;;;;4.47;3.03;;;;;;;;;;5115949;28;20461;-71
2022/06/01 01:46:01;;;;;;;4.00;3.40;;;;;;;;;;5116118;28;20459;-70
2022/06/01 01:48:30;;;;;;;6.30;3.40;;;;;;;;;;5116394;28;20591;-71
2022/06/01 01:50:58;;;;;;;4.47;3.03;;;;;;;;;;5116522;28;20466;-70
2022/06/01 01:53:25;;;;;;;4.43;3.13;;;;;;;;;;5115442;28;20450;-71
2022/06/01 01:55:59;;;;;;;5.27;3.10;;;;;;;;;;5116558;28;20861;-70
2022/06/01 01:58:34;;;;;;;4.60;3.10;;;;;;;;;;5115538;28;20450;-70
2022/06/01 02:01:04;;;;;;;4.53;3.30;;;;;;;;;;5116560;28;20522;-70
2022/06/01 02:03:41;;;;;;;3.00;2.67;;;;;;;;;;5116433;28;20821;-70
2022/06/01 02:06:11;;;;;;;3.03;2.30;;;;;;;;;;5114675;28;20462;-70
2022/06/01 02:08:46;;;;;;;3.70;3.07;;;;;;;;;;5115149;28;20507;-70
2022/06/01 02:14:04;;;;;;;4.00;3.07;;;;;;;;;;5115469;28;20434;-70
2022/06/01 02:16:36;;;;;;;4.53;2.87;;;;;;;;;;5116354;28;20707;-70
2022/06/01 02:19:06;;;;;;;4.27;2.90;;;;;;;;;;5114974;28;20492;-70
2022/06/01 02:21:34;;;;;;;5.80;3.17;;;;;;;;;;5116767;28;20811;-70
2022/06/01 02:24:02;;;;;;;3.80;3.40;;;;;;;;;;5116436;28;20538;-70
2022/06/01 02:26:30;;;;;;;4.10;3.33;;;;;;;;;;5115245;28;20466;-70
2022/06/01 02:29:02;;;;;;;3.30;3.00;;;;;;;;;;5116415;28;20726;-70
2022/06/01 02:31:32;;;;;;;4.77;2.70;;;;;;;;;;5115985;28;20458;-70
2022/06/01 02:34:00;;;;;;;4.00;2.87;;;;;;;;;;5116494;28;20466;-70
2022/06/01 02:36:30;;;;;;;3.93;2.60;;;;;;;;;;5116418;28;20455;-70
2022/06/01 02:38:59;;;;;;;5.27;3.00;;;;;;;;;;5115957;28;20507;-70
2022/06/01 02:44:12;;;;;;;2.73;2.40;;;;;;;;;;5119852;27;20496;-70
2022/06/01 02:46:41;;;;;;;4.20;2.67;;;;;;;;;;5119210;27;20473;-70
2022/06/01 02:49:09;;;;;;;4.83;3.10;;;;;;;;;;5119844;27;20454;-70
2022/06/01 02:51:36;;;;;;;6.00;2.83;;;;;;;;;;5120049;27;20474;-70
2022/06/01 02:54:04;;;;;;;5.23;2.90;;;;;;;;;;5119711;27;20460;-70
2022/06/01 02:56:32;;;;;;;5.03;2.77;;;;;;;;;;5118761;27;20463;-70
2022/06/01 02:59:00;;;;;;;5.87;3.27;;;;;;;;;;5119649;27;20463;-70
2022/06/01 03:01:29;;;;;;;4.23;2.77;;;;;;;;;;5118978;27;20491;-70
2022/06/01 03:03:58;;;;;;;4.20;2.90;;;;;;;;;;5119953;28;20454;-70
2022/06/01 03:06:26;;;;;;;5.30;2.50;;;;;;;;;;5119544;27;20455;-70
2022/06/01 03:08:53;;;;;;;7.97;3.03;;;;;;;;;;5119806;27;20787;-70
2022/06/01 03:11:21;;;;;;;4.20;3.20;;;;;;;;;;5119524;27;20451;-70
2022/06/01 03:13:49;;;;;;;5.73;3.13;;;;;;;;;;5118809;27;20451;-70
2022/06/01 03:16:17;;;;;;;4.57;3.00;;;;;;;;;;5119933;27;21058;-70
2022/06/01 03:18:44;;;;;;;4.37;3.10;;;;;;;;;;5118893;27;20458;-70
2022/06/01 03:21:15;;;;;;;4.00;3.23;;;;;;;;;;5117468;27;20447;-70
2022/06/01 03:23:42;;;;;;;5.33;3.50;;;;;;;;;;5118222;27;20456;-70
2022/06/01 03:26:10;;;;;;;7.07;3.60;;;;;;;;;;5118586;27;20701;-70
2022/06/01 03:28:38;;;;;;;3.80;3.37;;;;;;;;;;5119738;27;20913;-70
2022/06/01 03:31:06;;;;;;;4.00;3.57;;;;;;;;;;5118278;27;20931;-70
2022/06/01 03:33:35;;;;;;;3.70;3.03;;;;;;;;;;5118914;27;20809;-70
2022/06/01 03:36:03;;;;;;;4.77;2.67;;;;;;;;;;5118801;27;20508;-70
2022/06/01 03:38:32;;;;;;;4.00;2.90;;;;;;;;;;5118136;27;20458;-70
2022/06/01 03:41:00;;;;;;;5.90;3.10;;;;;;;;;;5117768;27;20862;-70
2022/06/01 03:43:28;;;;;;;8.23;4.07;;;;;;;;;;5117822;27;20482;-70
2022/06/01 03:45:58;;;;;;;4.23;3.43;;;;;;;;;;5118568;27;20455;-71
2022/06/01 03:48:29;;;;;;;4.43;3.17;;;;;;;;;;5118373;27;20478;-70
2022/06/01 03:50:57;;;;;;;6.57;2.77;;;;;;;;;;5116628;27;20507;-70
2022/06/01 03:53:24;;;;;;;3.23;2.93;;;;;;;;;;5117771;27;20473;-70
2022/06/01 03:55:54;;;;;;;7.60;4.00;;;;;;;;;;5117890;27;20888;-70
2022/06/01 03:58:23;;;;;;;5.23;4.07;;;;;;;;;;5117908;27;20825;-70
2022/06/01 04:00:51;;;;;;;3.93;2.93;;;;;;;;;;5117070;27;20766;-70
2022/06/01 04:03:19;;;;;;;4.10;3.10;;;;;;;;;;5117570;27;20470;-70
2022/06/01 04:05:47;;;;;;;4.07;3.00;;;;;;;;;;5117129;28;20455;-70
2022/06/01 04:08:16;;;;;;;4.30;3.90;;;;;;;;;;5116812;27;20727;-70
2022/06/01 04:10:44;;;;;;;4.23;3.53;;;;;;;;;;5115501;27;20450;-70
2022/06/01 04:13:14;;;;;;;3.67;2.97;;;;;;;;;;5116715;27;20461;-71
2022/06/01 04:15:42;;;;;;;3.50;3.00;;;;;;;;;;5116939;27;20455;-70
2022/06/01 04:18:11;;;;;;;4.20;3.00;;;;;;;;;;5116014;27;20478;-70
2022/06/01 04:20:39;;;;;;;4.37;3.10;;;;;;;;;;5116829;27;20485;-70
2022/06/01 04:23:07;;;;;;;4.03;3.23;;;;;;;;;;5116661;27;20889;-70
2022/06/01 04:25:34;;;;;;;3.77;2.90;;;;;;;;;;5116951;27;20458;-70
2022/06/01 04:28:02;;;;;;;3.60;2.97;;;;;;;;;;5116432;28;21022;-70
2022/06/01 04:30:31;;;;;;;3.70;3.20;;;;;;;;;;5099811;28;20563;-70
2022/06/01 04:33:00;;;;;;;6.40;3.37;;;;;;;;;;5113477;27;20466;-71
2022/06/01 04:35:28;;;;;;;3.70;3.30;;;;;;;;;;5111919;27;20473;-70
2022/06/01 04:38:12;;;;;;;3.70;3.27;;;;;;;;;;5116105;27;21048;-70
2022/06/01 04:40:40;;;;;;;6.27;4.40;;;;;;;;;;5116542;27;20451;-70
2022/06/01 04:43:08;;;;;;;3.80;3.27;;;;;;;;;;5116666;27;20744;-70
2022/06/01 04:45:37;;;;;;;5.53;3.30;;;;;;;;;;5117100;28;20481;-71
2022/06/01 04:48:05;;;;;;;7.43;3.63;;;;;;;;;;5103989;28;20975;-70
2022/06/01 04:50:33;;;;;;;4.00;3.60;;;;;;;;;;5112480;28;20539;-70
2022/06/01 04:53:02;;;;;;;6.10;3.23;;;;;;;;;;5114964;27;21001;-70
2022/06/01 04:55:30;;;;;;;3.73;3.43;;;;;;;;;;5109626;28;20520;-70
2022/06/01 04:57:58;;;;;;;5.33;3.67;;;;;;;;;;5103786;27;20463;-70
2022/06/01 05:00:25;;;;;;;3.50;3.20;;;;;;;;;;5116691;27;20548;-70
2022/06/01 05:02:55;;;;;;;3.77;3.10;;;;;;;;;;5116308;27;20458;-70
2022/06/01 05:05:26;;;;;;;5.20;3.17;;;;;;;;;;5114838;27;20473;-70
2022/06/01 05:07:53;;;;;;;4.40;3.70;;;;;;;;;;5109464;27;20898;-71
2022/06/01 05:10:22;;;;;;;7.83;3.97;;;;;;;;;;5107162;28;20463;-71
2022/06/01 05:12:49;;;;;;;4.93;4.00;;;;;;;;;;5115929;27;20943;-71
2022/06/01 05:15:17;;;;;;;4.10;3.30;;;;;;;;;;5114992;27;20470;-70
2022/06/01 05:17:45;;;;;;;3.97;3.57;;;;;;;;;;5115189;28;20462;-70
2022/06/01 05:20:15;;;;;;;5.80;3.80;;;;;;;;;;5114488;28;20574;-71
2022/06/01 05:22:43;;;;;;;4.20;3.70;;;;;;;;;;5115447;28;20450;-70
2022/06/01 05:25:11;;;;;;;5.87;4.33;;;;;;;;;;5114906;28;20914;-71
2022/06/01 05:27:38;;;;;;;5.43;4.20;;;;;;;;;;5110290;28;20475;-70
2022/06/01 05:30:07;;;;;;;5.27;4.10;;;;;;;;;;5114504;28;20450;-70
2022/06/01 05:32:37;;;;;;;4.07;3.50;;;;;;;;;;5113865;28;20459;-71
2022/06/01 05:35:05;;;;;;;4.63;4.20;;;;;;;;;;5104215;28;20446;-71
2022/06/01 05:37:35;;;;;;;5.07;4.23;;;;;;;;;;5114457;28;20459;-70
2022/06/01 05:40:03;;;;;;;6.37;5.33;;;;;;;;;;5113999;28;20835;-71
2022/06/01 05:42:31;;;;;;;8.50;5.77;;;;;;;;;;5114985;28;20966;-71
2022/06/01 05:45:00;;;;;;;7.00;5.83;;;;;;;;;;5103442;28;20463;-72
2022/06/01 05:47:31;;;;;;;6.80;6.10;;;;;;;;;;5114474;28;20900;-71
2022/06/01 05:50:00;;;;;;;6.00;5.10;;;;;;;;;;5111332;28;20461;-71
2022/06/01 05:52:28;;;;;;;6.53;5.73;;;;;;;;;;5094414;28;20489;-71
2022/06/01 05:54:58;;;;;;;7.43;6.67;;;;;;;;;;5111217;28;20481;-70
2022/06/01 05:57:26;;;;;;;9.80;6.57;;;;;;;;;;5114462;28;20539;-70
2022/06/01 05:59:54;;;;;;;6.67;6.03;;;;;;;;;;5112675;28;20490;-70
2022/06/01 06:02:24;;;;;;;10.93;6.40;;;;;;;;;;5111290;28;20454;-71
2022/06/01 06:04:51;;;;;;;9.30;7.37;;;;;;;;;;5105040;28;20494;-71
2022/06/01 06:07:23;;;;;;;7.10;6.30;;;;;;;;;;5114167;28;20523;-71
2022/06/01 06:09:51;;;;;;;6.93;6.23;;;;;;;;;;5110095;28;20515;-71
2022/06/01 06:12:21;;;;;;;7.97;6.30;;;;;;;;;;5100542;28;20519;-70
2022/06/01 06:14:49;;;;;;;10.33;6.60;;;;;;;;;;5094105;28;20752;-71
2022/06/01 06:17:19;;;;;;;7.27;5.67;;;;;;;;;;5107022;27;20560;-71
2022/06/01 06:19:55;;;;;;;5.73;5.23;;;;;;;;;;5118163;27;20482;-71
2022/06/01 06:22:26;;;;;;;7.17;5.67;;;;;;;;;;5118106;27;20461;-71
2022/06/01 06:24:54;;;;;;;6.30;4.93;;;;;;;;;;5119150;27;20451;-70
2022/06/01 06:27:26;;;;;;;6.53;5.60;;;;;;;;;;5118003;27;20458;-71
2022/06/01 06:29:57;;;;;;;9.03;5.63;;;;;;;;;;5118890;27;20525;-71
2022/06/01 06:32:28;;;;;;;6.53;5.80;;;;;;;;;;5119062;27;20446;-72
2022/06/01 06:34:56;;;;;;;7.87;6.73;;;;;;;;;;5118143;27;20459;-70
2022/06/01 06:37:25;;;;;;;10.87;6.10;;;;;;;;;;5103858;27;20556;-71
2022/06/01 06:39:52;;;;;;;5.90;5.40;;;;;;;;;;5117555;27;20451;-71
2022/06/01 06:42:22;;;;;;;6.30;5.40;;;;;;;;;;5118693;27;20533;-69
2022/06/01 06:44:52;;;;;;;5.80;5.20;;;;;;;;;;5118625;27;20458;-70
2022/06/01 06:47:23;;;;;;;7.00;6.30;;;;;;;;;;5116785;27;20458;-71
2022/06/01 06:49:51;;;;;;;6.87;5.40;;;;;;;;;;5118089;27;20482;-71
2022/06/01 06:52:19;;;;;;;5.83;4.93;;;;;;;;;;5117048;27;20468;-71
2022/06/01 06:54:47;;;;;;;8.00;7.20;;;;;;;;;;5117448;27;20450;-71
2022/06/01 06:57:17;;;;;;;7.13;6.20;;;;;;;;;;5118893;27;20538;-71
2022/06/01 06:59:45;;;;;;;6.50;5.40;;;;;;;;;;5118019;27;20951;-71
2022/06/01 07:02:16;;;;;;;6.30;5.70;;;;;;;;;;5117689;27;20482;-72
2022/06/01 07:04:45;;;;;;;5.80;5.20;;;;;;;;;;5118134;28;20566;-71
2022/06/01 07:07:13;;;;;;;6.13;4.87;;;;;;;;;;5116992;27;20542;-71
2022/06/01 07:09:42;;;;;;;6.33;4.60;;;;;;;;;;5117735;27;20486;-71
2022/06/01 07:12:13;;;;;;;5.80;5.20;;;;;;;;;;5111475;27;20456;-71
2022/06/01 07:14:46;;;;;;;5.60;5.10;;;;;;;;;;5113328;27;20463;-72
2022/06/01 07:17:15;;;;;;;5.10;4.60;;;;;;;;;;5109246;28;20535;-71
2022/06/01 07:19:46;;;;;;;6.07;4.77;;;;;;;;;;5119383;27;20490;-72
2022/06/01 07:22:16;;;;;;;5.70;4.77;;;;;;;;;;5117668;27;20879;-72
2022/06/01 07:24:57;;;;;;;6.00;4.77;;;;;;;;;;5116486;27;20459;-71
2022/06/01 07:27:42;;;;;;;4.43;3.90;;;;;;;;;;5115362;27;20539;-70
2022/06/01 07:30:12;;;;;;;4.73;3.87;;;;;;;;;;5116223;27;20482;-70
2022/06/01 07:32:43;;;;;;;7.60;4.80;;;;;;;;;;5097258;28;20470;-71
2022/06/01 07:35:12;;;;;;;5.33;4.83;;;;;;;;;;5097426;28;20471;-71
2022/06/01 07:43:11;;;;;;;5.57;4.37;;;;;;;;;;5096811;28;20529;-70
2022/06/01 07:45:45;;;;;;;5.13;4.47;;;;;;;;;;5096221;28;20730;-70
2022/06/01 07:48:14;;;;;;;7.23;4.37;;;;;;;;;;5107642;27;20754;-71
2022/06/01 07:50:42;;;;;;;5.07;4.57;;;;;;;;;;5116171;27;20547;-71
2022/06/01 07:53:18;;;;;;;4.50;3.87;;;;;;;;;;5111835;27;20882;-72
2022/06/01 07:55:46;;;;;;;5.93;5.33;;;;;;;;;;5115880;27;20517;-71
2022/06/01 07:58:15;;;;;;;5.53;4.40;;;;;;;;;;5098456;28;20463;-70
2022/06/01 08:00:52;;;;;;;5.90;4.70;;;;;;;;;;5111797;27;21093;-72
2022/06/01 08:03:24;;;;;;;4.53;4.03;;;;;;;;;;5116365;27;20465;-71
2022/06/01 08:05:51;;;;;;;6.50;4.53;;;;;;;;;;5115201;27;20470;-71
2022/06/01 08:08:19;;;;;;;5.53;5.03;;;;;;;;;;5103281;28;20475;-71
2022/06/01 08:10:47;;;;;;;5.20;4.53;;;;;;;;;;5115107;28;21083;-71
2022/06/01 08:13:15;;;;;;;6.07;5.10;;;;;;;;;;5116247;27;20541;-71
2022/06/01 08:15:56;;;;;;;6.63;4.77;;;;;;;;;;5113703;27;20479;-71
2022/06/01 08:18:36;;;;;;;6.50;5.13;;;;;;;;;;5105596;27;20742;-70
2022/06/01 08:21:11;;;;;;;6.13;4.20;;;;;;;;;;5096343;28;20462;-70
2022/06/01 08:23:39;;;;;;;5.97;4.40;;;;;;;;;;5110300;27;20454;-70
2022/06/01 08:26:10;;;;;;;4.93;4.43;;;;;;;;;;5115574;27;21074;-69
2022/06/01 08:28:38;;;;;;;5.33;4.83;;;;;;;;;;5114972;27;20486;-69
2022/06/01 08:31:08;;;;;;;5.30;4.80;;;;;;;;;;5115692;28;20527;-71
2022/06/01 08:33:41;;;;;;;5.63;5.03;;;;;;;;;;5115733;27;20454;-70
2022/06/01 08:36:12;;;;;;;5.50;5.00;;;;;;;;;;5116377;27;20459;-70
2022/06/01 08:38:44;;;;;;;4.57;3.97;;;;;;;;;;5115722;27;20505;-70
2022/06/01 08:41:16;;;;;;;5.17;4.67;;;;;;;;;;5115758;27;20474;-73
2022/06/01 08:43:45;;;;;;;6.63;4.63;;;;;;;;;;5110664;28;20805;-70
2022/06/01 08:46:18;;;;;;;4.97;4.47;;;;;;;;;;5106489;27;20554;-70
2022/06/01 08:48:49;;;;;;;5.80;4.50;;;;;;;;;;5095636;27;20491;-70
2022/06/01 08:51:19;;;;;;;9.00;4.17;;;;;;;;;;5105763;27;20459;-69
2022/06/01 08:53:46;;;;;;;6.60;4.07;;;;;;;;;;5115572;28;20555;-69
2022/06/01 08:56:19;;;;;;;5.07;4.50;;;;;;;;;;5115556;27;20459;-70
2022/06/01 08:58:58;;;;;;;6.20;4.37;;;;;;;;;;5114092;27;20461;-72
2022/06/01 09:01:30;;;;;;;11.77;4.23;;;;;;;;;;5105867;27;20745;-70
2022/06/01 09:04:08;;;;;;;5.80;3.77;;;;;;;;;;5114566;27;20459;-70
2022/06/01 09:06:41;;;;;;;4.93;3.87;;;;;;;;;;5102273;28;20550;-73
2022/06/01 09:09:19;;;;;;;5.60;4.37;;;;;;;;;;5111334;27;20561;-73
2022/06/01 09:11:54;;;;;;;5.70;4.40;;;;;;;;;;5119576;27;20921;-71
2022/06/01 09:14:38;;;;;;;5.30;3.50;;;;;;;;;;5105853;28;20985;-72
2022/06/01 09:17:09;;;;;;;5.30;4.03;;;;;;;;;;5112273;28;20439;-72
2022/06/01 09:22:49;;;;;;;5.73;3.50;;;;;;;;;;5110403;28;20478;-71
2022/06/01 09:25:20;;;;;;;4.47;3.73;;;;;;;;;;5108964;28;20498;-72
2022/06/01 09:28:01;;;;;;;4.33;3.93;;;;;;;;;;5115303;28;20519;-73
2022/06/01 09:30:37;;;;;;;5.30;3.90;;;;;;;;;;5097129;28;20551;-71
2022/06/01 09:33:20;;;;;;;4.73;3.70;;;;;;;;;;5095161;28;20455;-74
2022/06/01 09:36:03;;;;;;;4.83;4.00;;;;;;;;;;5094760;28;20471;-71
2022/06/01 09:38:44;;;;;;;4.20;3.43;;;;;;;;;;5105843;28;20500;-72
2022/06/01 09:41:13;;;;;;;3.70;3.27;;;;;;;;;;5115081;28;20501;-70
2022/06/01 09:43:44;;;;;;;5.27;2.80;;;;;;;;;;5114846;28;20450;-70
2022/06/01 09:46:35;;;;;;;3.60;2.77;;;;;;;;;;5110677;28;20538;-73
2022/06/01 09:49:26;;;;;;;3.57;3.00;;;;;;;;;;5105355;28;20517;-70
2022/06/01 09:52:00;;;;;;;3.00;2.47;;;;;;;;;;5117823;27;20466;-70
2022/06/01 09:54:29;;;;;;;2.40;1.77;;;;;;;;;;5116080;28;20583;-71
2022/06/01 09:56:57;;;;;;;3.70;1.50;;;;;;;;;;5118135;27;20875;-71
2022/06/01 10:08:12;;;;;;;2.70;1.70;;;;;;;;;;5118261;27;20477;-71
2022/06/01 10:10:41;;;;;;;4.47;1.53;;;;;;;;;;5117620;27;20577;-71
2022/06/01 10:13:11;;;;;;;1.90;1.07;;;;;;;;;;5117203;27;20447;-71
2022/06/01 10:15:43;;;;;;;2.20;1.00;;;;;;;;;;5118484;27;20534;-71
2022/06/01 10:18:15;;;;;;;1.80;0.90;;;;;;;;;;5116121;27;20458;-71
2022/06/01 10:20:46;;;;;;;1.97;1.07;;;;;;;;;;5118078;27;20510;-71
2022/06/01 10:23:20;;;;;;;3.60;1.70;;;;;;;;;;5117465;27;20474;-70
2022/06/01 10:25:51;;;;;;;2.53;1.50;;;;;;;;;;5099821;28;20455;-72
2022/06/01 10:28:25;;;;;;;2.10;1.20;;;;;;;;;;5113546;27;20555;-70
2022/06/01 10:30:59;;;;;;;2.33;0.90;;;;;;;;;;5111507;27;20473;-72
2022/06/01 10:33:34;;;;;;;1.80;1.00;;;;;;;;;;5109173;27;20471;-71
2022/06/01 10:36:10;;;;;;;2.20;1.23;;;;;;;;;;5109035;27;20535;-71
2022/06/01 10:38:50;;;;;;;2.50;1.90;;;;;;;;;;5113965;27;20489;-72
2022/06/01 10:41:23;;;;;;;3.40;2.67;;;;;;;;;;5110679;27;20478;-72
2022/06/01 10:44:05;;;;;;;2.97;1.93;;;;;;;;;;5110795;27;20764;-72
2022/06/01 10:46:40;;;;;;;2.10;1.60;;;;;;;;;;5113314;27;20455;-71
2022/06/01 10:49:41;;;;;;;3.20;2.00;;;;;;;;;;5109388;27;20449;-72
2022/06/01 10:52:16;;;;;;;3.40;1.60;;;;;;;;;;5110588;27;20569;-72
2022/06/01 10:54:58;;;;;;;2.60;1.53;;;;;;;;;;5116840;27;20457;-73
2022/06/01 10:57:38;;;;;;;2.60;1.77;;;;;;;;;;5113839;27;20477;-72
2022/06/01 11:00:07;;;;;;;3.10;1.90;;;;;;;;;;5111437;28;20856;-73
2022/06/01 11:03:03;;;;;;;2.87;1.97;;;;;;;;;;5113515;27;20502;-72
2022/06/01 11:05:43;;;;;;;2.77;2.00;;;;;;;;;;5096385;28;20972;-73
2022/06/01 11:08:27;;;;;;;2.43;1.50;;;;;;;;;;5116853;27;20462;-72
2022/06/01 11:11:04;;;;;;;2.50;1.90;;;;;;;;;;5108117;28;20804;-72
2022/06/01 11:13:44;;;;;;;2.57;2.07;;;;;;;;;;5110620;28;20523;-71
2022/06/01 11:16:24;;;;;;;4.40;3.27;;;;;;;;;;5102586;28;20450;-71
2022/06/01 11:19:00;;;;;;;2.47;1.40;;;;;;;;;;5113798;27;20466;-71
2022/06/01 11:21:39;;;;;;;2.70;1.70;;;;;;;;;;5116939;27;20466;-71
2022/06/01 11:24:35;;;;;;;2.83;2.10;;;;;;;;;;5114780;27;20455;-72
2022/06/01 11:27:23;;;;;;;3.40;2.20;;;;;;;;;;5095186;28;20482;-71
2022/06/01 11:30:01;;;;;;;3.13;1.90;;;;;;;;;;5097058;28;20476;-70
2022/06/01 11:32:42;;;;;;;4.03;2.57;;;;;;;;;;5103643;27;20447;-72
2022/06/01 11:35:19;;;;;;;3.30;1.90;;;;;;;;;;5111529;27;20484;-72
2022/06/01 11:37:54;;;;;;;3.50;2.33;;;;;;;;;;5116620;27;20878;-71
2022/06/01 11:40:28;;;;;;;3.87;2.70;;;;;;;;;;5114629;27;20870;-72
2022/06/01 11:43:20;;;;;;;5.07;3.20;;;;;;;;;;5108725;28;20562;-72
2022/06/01 11:45:58;;;;;;;4.10;3.53;;;;;;;;;;5111625;27;20457;-72
2022/06/01 11:48:36;;;;;;;3.80;2.27;;;;;;;;;;5110166;27;20470;-72
2022/06/01 11:51:17;;;;;;;4.43;2.50;;;;;;;;;;5113149;27;20493;-73
2022/06/01 11:53:47;;;;;;;3.40;2.30;;;;;;;;;;5094435;28;20452;-72
2022/06/01 11:56:27;;;;;;;6.30;3.03;;;;;;;;;;5108649;28;20492;-72
2022/06/01 11:59:07;;;;;;;13.53;12.10;;;;;;;;;;5106281;27;20828;-72
2022/06/01 12:01:53;;;;;;;5.87;3.40;;;;;;;;;;5116248;27;20504;-72
2022/06/01 12:04:44;;;;;;;3.80;2.57;;;;;;;;;;5114857;27;20781;-73
2022/06/01 12:07:19;;;;;;;3.43;2.40;;;;;;;;;;5105492;28;21068;-72
2022/06/01 12:09:54;;;;;;;5.27;2.70;;;;;;;;;;5111629;27;20481;-71
2022/06/01 12:12:45;;;;;;;4.97;3.03;;;;;;;;;;5112461;27;20445;-71
2022/06/01 12:15:24;;;;;;;4.57;2.80;;;;;;;;;;5099782;27;20538;-71
2022/06/01 12:18:18;;;;;;;3.30;2.60;;;;;;;;;;5113463;28;20468;-73
2022/06/01 12:20:53;;;;;;;3.67;2.80;;;;;;;;;;5100149;28;20458;-70
2022/06/01 12:29:37;;;;;;;4.37;3.50;;;;;;;;;;5103022;27;20486;-72
2022/06/01 12:32:14;;;;;;;6.10;4.10;;;;;;;;;;5108179;28;20465;-72
2022/06/01 12:35:08;;;;;;;6.03;3.90;;;;;;;;;;5113987;27;20535;-71
2022/06/01 12:37:50;;;;;;;6.13;4.47;;;;;;;;;;5081641;27;20467;-71
2022/06/01 12:40:30;;;;;;;5.37;4.10;;;;;;;;;;5106685;28;20454;-72
2022/06/01 12:43:15;;;;;;;6.10;3.60;;;;;;;;;;5100591;27;20512;-72
2022/06/01 12:46:02;;;;;;;7.70;5.20;;;;;;;;;;5111887;27;20706;-72
2022/06/01 12:48:34;;;;;;;5.03;3.80;;;;;;;;;;5111080;28;20460;-73
2022/06/01 12:51:07;;;;;;;7.47;4.50;;;;;;;;;;5101619;27;21116;-74
2022/06/01 12:53:43;;;;;;;4.40;3.30;;;;;;;;;;5114633;27;20457;-72
2022/06/01 12:56:17;;;;;;;5.57;3.67;;;;;;;;;;5115559;27;20943;-74
2022/06/01 12:58:45;;;;;;;5.50;3.57;;;;;;;;;;5095488;28;20466;-73
2022/06/01 13:01:13;;;;;;;6.43;4.53;;;;;;;;;;5105985;28;20455;-73
2022/06/01 13:03:46;;;;;;;5.40;4.50;;;;;;;;;;5114090;27;20899;-72
2022/06/01 13:06:16;;;;;;;7.80;4.97;;;;;;;;;;5116119;28;20458;-73
2022/06/01 13:08:48;;;;;;;5.30;3.93;;;;;;;;;;5104930;28;20534;-72
2022/06/01 13:11:23;;;;;;;4.80;3.63;;;;;;;;;;5111954;28;20475;-73
2022/06/01 13:13:52;;;;;;;6.43;3.33;;;;;;;;;;5105114;27;20477;-71
2022/06/01 13:16:29;;;;;;;7.57;4.70;;;;;;;;;;5099318;28;20540;-72
2022/06/01 13:19:15;;;;;;;7.80;4.10;;;;;;;;;;5131942;27;20446;-72
2022/06/01 13:21:46;;;;;;;4.83;3.37;;;;;;;;;;5111327;28;20781;-71
2022/06/01 13:24:15;;;;;;;4.20;3.67;;;;;;;;;;5094292;28;20467;-72
2022/06/01 13:26:44;;;;;;;4.80;4.30;;;;;;;;;;5110366;28;20478;-72
2022/06/01 13:29:14;;;;;;;7.93;4.57;;;;;;;;;;5110784;27;20450;-72
2022/06/01 13:31:49;;;;;;;5.50;4.00;;;;;;;;;;5113759;28;20497;-71
2022/06/01 13:34:23;;;;;;;5.83;5.13;;;;;;;;;;5113866;28;20499;-71
2022/06/01 13:36:52;;;;;;;5.03;4.20;;;;;;;;;;5113726;28;20886;-71
2022/06/01 13:39:29;;;;;;;4.40;3.90;;;;;;;;;;5113152;28;20515;-71
2022/06/01 13:42:00;;;;;;;5.00;4.20;;;;;;;;;;5106058;28;20582;-72
2022/06/01 13:45:03;;;;;;;7.10;5.37;;;;;;;;;;5103362;28;21293;-72
2022/06/01 13:47:44;;;;;;;5.83;3.90;;;;;;;;;;5016609;28;20482;-72
2022/06/01 13:50:51;;;;;;;8.33;4.00;;;;;;;;;;5028791;28;20478;-72
2022/06/01 13:53:39;;;;;;;6.33;4.43;;;;;;;;;;5080875;28;20546;-75
2022/06/01 13:58:55;;;;;;;5.30;3.60;;;;;;;;;;5108984;28;20470;-72
2022/06/01 14:01:32;;;;;;;8.30;3.83;;;;;;;;;;5113277;28;20553;-73
2022/06/01 14:04:01;;;;;;;4.40;3.60;;;;;;;;;;5113558;28;20454;-72
2022/06/01 14:06:34;;;;;;;4.17;3.67;;;;;;;;;;5099919;28;20463;-72
2022/06/01 14:09:06;;;;;;;4.80;4.30;;;;;;;;;;5110272;28;20456;-73
2022/06/01 14:11:35;;;;;;;6.60;4.13;;;;;;;;;;5104715;28;20470;-72
2022/06/01 14:14:07;;;;;;;5.70;3.60;;;;;;;;;;5093900;28;20535;-73
2022/06/01 14:16:48;;;;;;;5.30;4.20;;;;;;;;;;5110275;28;20490;-73
2022/06/01 14:19:16;;;;;;;4.43;3.60;;;;;;;;;;5098945;28;20468;-72
2022/06/01 14:21:44;;;;;;;4.80;4.33;;;;;;;;;;5092454;28;20471;-72
2022/06/01 14:24:16;;;;;;;5.03;4.27;;;;;;;;;;5092259;28;20535;-71
2022/06/01 14:29:29;;;;;;;3.93;2.77;;;;;;;;;;5113289;28;20441;-73
2022/06/01 14:32:01;;;;;;;5.57;3.37;;;;;;;;;;5111956;27;20503;-72
2022/06/01 14:34:32;;;;;;;4.57;2.90;;;;;;;;;;5103554;28;20524;-72
2022/06/01 14:37:01;;;;;;;3.20;2.57;;;;;;;;;;5092041;28;20513;-73
2022/06/01 14:39:30;;;;;;;3.17;2.53;;;;;;;;;;5101067;27;20495;-71
2022/06/01 14:42:09;;;;;;;4.00;3.17;;;;;;;;;;5129485;27;20450;-72
2022/06/01 14:44:37;;;;;;;3.80;3.10;;;;;;;;;;5114627;27;20894;-71
2022/06/01 14:47:06;;;;;;;5.00;3.10;;;;;;;;;;5112079;28;20465;-71
2022/06/01 14:49:34;;;;;;;4.20;3.40;;;;;;;;;;5112346;27;20816;-71
2022/06/01 14:52:05;;;;;;;3.97;2.70;;;;;;;;;;5105199;28;20791;-73
2022/06/01 14:54:36;;;;;;;5.10;2.03;;;;;;;;;;5108537;27;20512;-70
2022/06/01 14:57:10;;;;;;;3.80;2.30;;;;;;;;;;5110049;27;20884;-72
2022/06/01 14:59:38;;;;;;;4.13;2.20;;;;;;;;;;5116531;27;20493;-71
2022/06/01 15:02:06;;;;;;;4.23;2.90;;;;;;;;;;5133486;27;20871;-71
2022/06/01 15:04:52;;;;;;;3.40;2.27;;;;;;;;;;5132560;27;20471;-71
2022/06/01 15:07:35;;;;;;;3.93;1.90;;;;;;;;;;5113304;27;20503;-71
2022/06/01 15:10:05;;;;;;;5.43;2.50;;;;;;;;;;5108661;27;20465;-72
2022/06/01 15:12:38;;;;;;;3.23;2.17;;;;;;;;;;5119686;27;20501;-72
2022/06/01 15:15:12;;;;;;;2.93;1.90;;;;;;;;;;5112474;27;20513;-71
2022/06/01 15:17:50;;;;;;;3.50;2.80;;;;;;;;;;5116945;27;20486;-70
2022/06/01 15:20:25;;;;;;;4.27;2.70;;;;;;;;;;5110154;27;20450;-69
2022/06/01 15:22:54;;;;;;;4.47;2.60;;;;;;;;;;5113830;27;20835;-71
2022/06/01 15:25:27;;;;;;;4.30;3.07;;;;;;;;;;5111691;28;20832;-70
2022/06/01 15:28:06;;;;;;;4.93;3.80;;;;;;;;;;5115326;27;20463;-71
2022/06/01 15:42:18;;;;;;;5.13;3.57;;;;;;;;;;5098406;27;20460;-71
2022/06/01 15:44:46;;;;;;;5.37;3.50;;;;;;;;;;5130268;27;20514;-72
2022/06/01 15:47:21;;;;;;;7.40;4.67;;;;;;;;;;5136358;27;20722;-70
2022/06/01 15:49:49;;;;;;;6.50;4.50;;;;;;;;;;5120698;27;20480;-70
2022/06/01 15:52:18;;;;;;;6.43;4.63;;;;;;;;;;5115303;27;21023;-71
2022/06/01 15:54:46;;;;;;;8.10;5.67;;;;;;;;;;5113958;27;20469;-70
2022/06/01 15:57:15;;;;;;;6.90;5.00;;;;;;;;;;5114855;27;20490;-70
2022/06/01 15:59:47;;;;;;;6.33;5.67;;;;;;;;;;5114254;27;20450;-70